sensor_id;sensor_type;location;lat;lon;timestamp;temperature;humidity
12720;DHT22;6424;48.520;11.228;2023-09-19T00:02:20;15.70;99.90
12720;DHT22;6424;48.520;11.228;2023-09-19T00:05:05;15.70;99.90
12720;DHT22;6424;48.520;11.228;2023-09-19T00:07:51;15.70;99.90
12720;DHT22;6424;48.520;11.228;2023-09-19T00:10:38;15.60;99.90
12720;DHT22;6424;48.520;11.228;2023-09-19T00:13:23;15.70;99.90
12720;DHT22;6424;48.520;11.228;2023-09-19T00:16:11;15.70;99.90
12720;DHT22;6424;48.520;11.228;2023-09-19T00:18:56;15.70;99.90
12720;DHT22;6424;48.520;11.228;2023-09-19T00:21:41;15.70;99.90
12720;DHT22;6424;48.520;11.228;2023-09-19T00:24:26;15.70;99.90
12720;DHT22;6424;48.520;11.228;2023-09-19T00:27:12;15.70;99.90
12720;DHT22;6424;48.520;11.228;2023-09-19T00:29:56;15.70;99.90
12720;DHT22;6424;48.520;11.228;2023-09-19T00:32:41;15.70;99.90
12720;DHT22;6424;48.520;11.228;2023-09-19T00:35:26;15.70;99.90
12720;DHT22;6424;48.520;11.228;2023-09-19T00:38:11;15.70;99.90
12720;DHT22;6424;48.520;11.228;2023-09-19T00:40:56;15.80;99.90
12720;DHT22;6424;48.520;11.228;2023-09-19T00:43:44;15.80;99.90
12720;DHT22;6424;48.520;11.228;2023-09-19T00:46:28;15.70;99.90
12720;DHT22;6424;48.520;11.228;2023-09-19T00:49:13;15.70;99.90
12720;DHT22;6424;48.520;11.228;2023-09-19T00:51:58;15.60;99.90
12720;DHT22;6424;48.520;11.228;2023-09-19T00:54:44;15.70;99.90
12720;DHT22;6424;48.520;11.228;2023-09-19T00:57:28;15.60;99.90
12720;DHT22;6424;48.520;11.228;2023-09-19T01:00:17;15.60;99.90
12720;DHT22;6424;48.520;11.228;2023-09-19T01:03:05;15.60;99.90
12720;DHT22;6424;48.520;11.228;2023-09-19T01:05:50;15.70;99.90
12720;DHT22;6424;48.520;11.228;2023-09-19T01:08:35;15.70;99.90
12720;DHT22;6424;48.520;11.228;2023-09-19T01:14:34;15.80;99.90
12720;DHT22;6424;48.520;11.228;2023-09-19T01:17:29;15.80;99.90
12720;DHT22;6424;48.520;11.228;2023-09-19T01:24:07;15.90;99.90
12720;DHT22;6424;48.520;11.228;2023-09-19T01:27:17;15.90;99.90
12720;DHT22;6424;48.520;11.228;2023-09-19T01:30:17;15.80;99.90
12720;DHT22;6424;48.520;11.228;2023-09-19T01:33:07;15.90;99.90
12720;DHT22;6424;48.520;11.228;2023-09-19T01:35:52;15.90;99.90
12720;DHT22;6424;48.520;11.228;2023-09-19T01:38:43;15.90;99.90
12720;DHT22;6424;48.520;11.228;2023-09-19T01:47:46;15.90;99.90
12720;DHT22;6424;48.520;11.228;2023-09-19T01:50:41;15.80;99.90
12720;DHT22;6424;48.520;11.228;2023-09-19T01:54:00;15.80;99.90
12720;DHT22;6424;48.520;11.228;2023-09-19T01:57:14;15.70;99.90
12720;DHT22;6424;48.520;11.228;2023-09-19T02:00:06;15.70;99.90
12720;DHT22;6424;48.520;11.228;2023-09-19T02:02:51;15.70;99.90
12720;DHT22;6424;48.520;11.228;2023-09-19T02:05:37;15.70;99.90
12720;DHT22;6424;48.520;11.228;2023-09-19T02:08:23;15.70;99.90
12720;DHT22;6424;48.520;11.228;2023-09-19T02:11:11;15.70;99.90
12720;DHT22;6424;48.520;11.228;2023-09-19T02:13:57;15.70;99.90
12720;DHT22;6424;48.520;11.228;2023-09-19T02:16:43;15.60;99.90
12720;DHT22;6424;48.520;11.228;2023-09-19T02:19:29;15.60;99.90
12720;DHT22;6424;48.520;11.228;2023-09-19T02:22:15;15.60;99.90
12720;DHT22;6424;48.520;11.228;2023-09-19T02:25:00;15.50;99.90
12720;DHT22;6424;48.520;11.228;2023-09-19T02:27:45;15.50;99.90
12720;DHT22;6424;48.520;11.228;2023-09-19T02:30:30;15.50;99.90
12720;DHT22;6424;48.520;11.228;2023-09-19T02:33:15;15.50;99.90
12720;DHT22;6424;48.520;11.228;2023-09-19T02:35:59;15.50;99.90
12720;DHT22;6424;48.520;11.228;2023-09-19T02:38:44;15.50;99.90
12720;DHT22;6424;48.520;11.228;2023-09-19T02:41:28;15.50;99.90
12720;DHT22;6424;48.520;11.228;2023-09-19T02:44:13;15.50;99.90
12720;DHT22;6424;48.520;11.228;2023-09-19T02:46:58;15.60;99.90
12720;DHT22;6424;48.520;11.228;2023-09-19T02:49:43;15.60;99.90
12720;DHT22;6424;48.520;11.228;2023-09-19T02:52:27;15.60;99.90
12720;DHT22;6424;48.520;11.228;2023-09-19T02:55:12;15.60;99.90
12720;DHT22;6424;48.520;11.228;2023-09-19T02:58:01;15.60;99.90
12720;DHT22;6424;48.520;11.228;2023-09-19T03:00:45;15.60;99.90
12720;DHT22;6424;48.520;11.228;2023-09-19T03:03:32;15.60;99.90
12720;DHT22;6424;48.520;11.228;2023-09-19T03:06:17;15.50;99.90
12720;DHT22;6424;48.520;11.228;2023-09-19T03:09:02;15.50;99.90
12720;DHT22;6424;48.520;11.228;2023-09-19T03:11:50;15.50;99.90
12720;DHT22;6424;48.520;11.228;2023-09-19T03:14:35;15.50;99.90
12720;DHT22;6424;48.520;11.228;2023-09-19T03:17:19;15.40;99.90
12720;DHT22;6424;48.520;11.228;2023-09-19T03:20:04;15.50;99.90
12720;DHT22;6424;48.520;11.228;2023-09-19T03:22:52;15.50;99.90
12720;DHT22;6424;48.520;11.228;2023-09-19T03:25:37;15.50;99.90
12720;DHT22;6424;48.520;11.228;2023-09-19T03:28:21;15.50;99.90
12720;DHT22;6424;48.520;11.228;2023-09-19T03:31:07;15.50;99.90
12720;DHT22;6424;48.520;11.228;2023-09-19T03:33:51;15.50;99.90
12720;DHT22;6424;48.520;11.228;2023-09-19T03:36:36;15.50;99.90
12720;DHT22;6424;48.520;11.228;2023-09-19T03:39:20;15.40;99.90
12720;DHT22;6424;48.520;11.228;2023-09-19T03:42:04;15.40;99.90
12720;DHT22;6424;48.520;11.228;2023-09-19T03:44:51;15.30;99.90
12720;DHT22;6424;48.520;11.228;2023-09-19T03:47:36;15.30;99.90
12720;DHT22;6424;48.520;11.228;2023-09-19T03:50:20;15.30;99.90
12720;DHT22;6424;48.520;11.228;2023-09-19T03:53:05;15.20;99.90
12720;DHT22;6424;48.520;11.228;2023-09-19T03:55:51;15.20;99.90
12720;DHT22;6424;48.520;11.228;2023-09-19T03:58:35;15.20;99.90
12720;DHT22;6424;48.520;11.228;2023-09-19T04:01:23;15.20;99.90
12720;DHT22;6424;48.520;11.228;2023-09-19T04:04:07;15.30;99.90
12720;DHT22;6424;48.520;11.228;2023-09-19T04:06:55;15.30;99.90
12720;DHT22;6424;48.520;11.228;2023-09-19T04:09:40;15.30;99.90
12720;DHT22;6424;48.520;11.228;2023-09-19T04:12:24;15.30;99.90
12720;DHT22;6424;48.520;11.228;2023-09-19T04:15:08;15.30;99.90
12720;DHT22;6424;48.520;11.228;2023-09-19T04:17:55;15.30;99.90
12720;DHT22;6424;48.520;11.228;2023-09-19T04:20:39;15.30;99.90
12720;DHT22;6424;48.520;11.228;2023-09-19T04:23:23;15.30;99.90
12720;DHT22;6424;48.520;11.228;2023-09-19T04:26:07;15.30;99.90
12720;DHT22;6424;48.520;11.228;2023-09-19T04:28:51;15.30;99.90
12720;DHT22;6424;48.520;11.228;2023-09-19T04:31:35;15.30;99.90
12720;DHT22;6424;48.520;11.228;2023-09-19T04:34:22;15.30;99.90
12720;DHT22;6424;48.520;11.228;2023-09-19T04:37:07;15.30;99.90
12720;DHT22;6424;48.520;11.228;2023-09-19T04:39:52;15.30;99.90
12720;DHT22;6424;48.520;11.228;2023-09-19T04:42:36;15.40;99.90
12720;DHT22;6424;48.520;11.228;2023-09-19T04:45:21;15.40;99.90
12720;DHT22;6424;48.520;11.228;2023-09-19T04:48:06;15.40;99.90
12720;DHT22;6424;48.520;11.228;2023-09-19T04:50:51;15.40;99.90
12720;DHT22;6424;48.520;11.228;2023-09-19T04:53:35;15.40;99.90
12720;DHT22;6424;48.520;11.228;2023-09-19T04:56:20;15.40;99.90
12720;DHT22;6424;48.520;11.228;2023-09-19T04:59:05;15.40;99.90
12720;DHT22;6424;48.520;11.228;2023-09-19T05:01:50;15.40;99.90
12720;DHT22;6424;48.520;11.228;2023-09-19T05:04:35;15.40;99.90
12720;DHT22;6424;48.520;11.228;2023-09-19T05:07:20;15.40;99.90
12720;DHT22;6424;48.520;11.228;2023-09-19T05:10:07;15.40;99.90
12720;DHT22;6424;48.520;11.228;2023-09-19T05:12:55;15.40;99.90
12720;DHT22;6424;48.520;11.228;2023-09-19T05:15:40;15.40;99.90
12720;DHT22;6424;48.520;11.228;2023-09-19T05:18:24;15.40;99.90
12720;DHT22;6424;48.520;11.228;2023-09-19T05:21:10;15.30;99.90
12720;DHT22;6424;48.520;11.228;2023-09-19T05:23:54;15.30;99.90
12720;DHT22;6424;48.520;11.228;2023-09-19T05:26:40;15.30;99.90
12720;DHT22;6424;48.520;11.228;2023-09-19T05:29:24;15.30;99.90
12720;DHT22;6424;48.520;11.228;2023-09-19T05:32:09;15.30;99.90
12720;DHT22;6424;48.520;11.228;2023-09-19T05:34:54;15.30;99.90
12720;DHT22;6424;48.520;11.228;2023-09-19T05:37:40;15.30;99.90
12720;DHT22;6424;48.520;11.228;2023-09-19T05:40:25;15.30;99.90
12720;DHT22;6424;48.520;11.228;2023-09-19T05:43:09;15.40;99.90
12720;DHT22;6424;48.520;11.228;2023-09-19T05:45:53;15.40;99.90
12720;DHT22;6424;48.520;11.228;2023-09-19T05:48:40;15.50;99.90
12720;DHT22;6424;48.520;11.228;2023-09-19T05:51:25;15.60;99.90
12720;DHT22;6424;48.520;11.228;2023-09-19T05:54:12;15.70;99.90
12720;DHT22;6424;48.520;11.228;2023-09-19T05:56:56;15.90;99.90
12720;DHT22;6424;48.520;11.228;2023-09-19T05:59:41;17.00;99.90
12720;DHT22;6424;48.520;11.228;2023-09-19T06:02:26;18.30;99.90
12720;DHT22;6424;48.520;11.228;2023-09-19T06:05:13;19.50;99.90
12720;DHT22;6424;48.520;11.228;2023-09-19T06:10:51;21.30;99.90
12720;DHT22;6424;48.520;11.228;2023-09-19T06:13:36;22.10;99.90
12720;DHT22;6424;48.520;11.228;2023-09-19T06:16:23;22.70;99.90
12720;DHT22;6424;48.520;11.228;2023-09-19T06:19:07;23.10;99.90
12720;DHT22;6424;48.520;11.228;2023-09-19T06:21:54;23.20;99.90
12720;DHT22;6424;48.520;11.228;2023-09-19T06:24:38;23.20;99.90
12720;DHT22;6424;48.520;11.228;2023-09-19T06:27:22;23.20;99.90
12720;DHT22;6424;48.520;11.228;2023-09-19T06:30:07;23.20;99.90
12720;DHT22;6424;48.520;11.228;2023-09-19T06:32:59;23.10;99.90
12720;DHT22;6424;48.520;11.228;2023-09-19T06:35:44;22.70;99.90
12720;DHT22;6424;48.520;11.228;2023-09-19T06:38:28;21.90;99.90
12720;DHT22;6424;48.520;11.228;2023-09-19T06:41:12;21.20;99.90
12720;DHT22;6424;48.520;11.228;2023-09-19T06:43:57;20.30;99.90
12720;DHT22;6424;48.520;11.228;2023-09-19T06:46:41;19.70;99.90
12720;DHT22;6424;48.520;11.228;2023-09-19T06:49:28;19.20;99.90
12720;DHT22;6424;48.520;11.228;2023-09-19T06:52:13;18.70;99.90
12720;DHT22;6424;48.520;11.228;2023-09-19T06:54:58;18.30;99.90
12720;DHT22;6424;48.520;11.228;2023-09-19T06:57:43;18.00;99.90
12720;DHT22;6424;48.520;11.228;2023-09-19T07:00:27;17.80;99.90
12720;DHT22;6424;48.520;11.228;2023-09-19T07:03:13;17.70;99.90
12720;DHT22;6424;48.520;11.228;2023-09-19T07:05:58;17.60;99.90
12720;DHT22;6424;48.520;11.228;2023-09-19T07:08:42;17.40;99.90
12720;DHT22;6424;48.520;11.228;2023-09-19T07:11:27;17.30;99.90
12720;DHT22;6424;48.520;11.228;2023-09-19T07:14:14;17.20;99.90
12720;DHT22;6424;48.520;11.228;2023-09-19T07:16:58;17.30;99.90
12720;DHT22;6424;48.520;11.228;2023-09-19T07:19:44;17.40;99.90
12720;DHT22;6424;48.520;11.228;2023-09-19T07:22:29;17.40;99.90
12720;DHT22;6424;48.520;11.228;2023-09-19T07:25:14;17.30;99.90
12720;DHT22;6424;48.520;11.228;2023-09-19T07:27:59;17.30;99.90
12720;DHT22;6424;48.520;11.228;2023-09-19T07:30:46;17.30;99.90
12720;DHT22;6424;48.520;11.228;2023-09-19T07:33:30;17.40;99.90
12720;DHT22;6424;48.520;11.228;2023-09-19T07:36:15;17.60;99.90
12720;DHT22;6424;48.520;11.228;2023-09-19T07:39:00;17.70;99.90
12720;DHT22;6424;48.520;11.228;2023-09-19T07:41:44;17.90;99.90
12720;DHT22;6424;48.520;11.228;2023-09-19T07:44:29;18.00;99.90
12720;DHT22;6424;48.520;11.228;2023-09-19T07:47:14;18.20;99.90
12720;DHT22;6424;48.520;11.228;2023-09-19T07:49:59;18.40;99.90
12720;DHT22;6424;48.520;11.228;2023-09-19T07:52:47;18.80;99.90
12720;DHT22;6424;48.520;11.228;2023-09-19T07:55:32;19.00;99.90
12720;DHT22;6424;48.520;11.228;2023-09-19T07:58:17;19.10;99.90
12720;DHT22;6424;48.520;11.228;2023-09-19T08:01:06;19.20;99.90
12720;DHT22;6424;48.520;11.228;2023-09-19T08:03:51;19.30;99.90
12720;DHT22;6424;48.520;11.228;2023-09-19T08:06:35;19.30;99.90
12720;DHT22;6424;48.520;11.228;2023-09-19T08:09:19;19.40;99.90
12720;DHT22;6424;48.520;11.228;2023-09-19T08:12:06;19.20;99.90
12720;DHT22;6424;48.520;11.228;2023-09-19T08:14:51;19.00;99.90
12720;DHT22;6424;48.520;11.228;2023-09-19T08:17:35;18.90;99.90
12720;DHT22;6424;48.520;11.228;2023-09-19T08:20:20;19.10;99.90
12720;DHT22;6424;48.520;11.228;2023-09-19T08:23:04;19.40;99.90
12720;DHT22;6424;48.520;11.228;2023-09-19T08:25:50;19.80;99.90
12720;DHT22;6424;48.520;11.228;2023-09-19T08:28:35;20.10;99.90
12720;DHT22;6424;48.520;11.228;2023-09-19T08:31:19;20.40;99.90
12720;DHT22;6424;48.520;11.228;2023-09-19T08:34:04;20.50;99.90
12720;DHT22;6424;48.520;11.228;2023-09-19T08:36:54;20.80;99.90
12720;DHT22;6424;48.520;11.228;2023-09-19T08:39:41;21.10;99.90
12720;DHT22;6424;48.520;11.228;2023-09-19T08:42:27;21.10;99.90
12720;DHT22;6424;48.520;11.228;2023-09-19T08:45:11;20.90;99.90
12720;DHT22;6424;48.520;11.228;2023-09-19T08:48:27;20.70;99.90
12720;DHT22;6424;48.520;11.228;2023-09-19T08:51:42;20.60;99.90
12720;DHT22;6424;48.520;11.228;2023-09-19T08:54:36;20.60;99.90
12720;DHT22;6424;48.520;11.228;2023-09-19T08:57:22;20.50;99.90
12720;DHT22;6424;48.520;11.228;2023-09-19T09:00:08;20.30;99.90
12720;DHT22;6424;48.520;11.228;2023-09-19T09:02:57;20.00;99.90
12720;DHT22;6424;48.520;11.228;2023-09-19T09:05:43;19.80;99.90
12720;DHT22;6424;48.520;11.228;2023-09-19T09:08:31;19.60;99.90
12720;DHT22;6424;48.520;11.228;2023-09-19T09:11:16;19.50;99.90
12720;DHT22;6424;48.520;11.228;2023-09-19T09:14:01;19.40;99.90
12720;DHT22;6424;48.520;11.228;2023-09-19T09:16:45;19.60;99.90
12720;DHT22;6424;48.520;11.228;2023-09-19T09:19:30;19.60;99.90
12720;DHT22;6424;48.520;11.228;2023-09-19T09:22:15;19.70;99.90
12720;DHT22;6424;48.520;11.228;2023-09-19T09:25:02;19.70;99.90
12720;DHT22;6424;48.520;11.228;2023-09-19T09:28:01;19.80;99.90
12720;DHT22;6424;48.520;11.228;2023-09-19T09:30:46;20.00;99.90
12720;DHT22;6424;48.520;11.228;2023-09-19T09:33:31;20.10;99.90
12720;DHT22;6424;48.520;11.228;2023-09-19T09:36:15;20.20;99.90
12720;DHT22;6424;48.520;11.228;2023-09-19T09:38:59;20.30;99.90
12720;DHT22;6424;48.520;11.228;2023-09-19T09:41:59;20.30;99.90
12720;DHT22;6424;48.520;11.228;2023-09-19T09:44:43;20.20;99.90
12720;DHT22;6424;48.520;11.228;2023-09-19T09:47:48;19.50;99.90
12720;DHT22;6424;48.520;11.228;2023-09-19T09:50:47;18.80;99.90
12720;DHT22;6424;48.520;11.228;2023-09-19T09:53:34;18.20;99.90
12720;DHT22;6424;48.520;11.228;2023-09-19T09:56:20;18.00;99.90
12720;DHT22;6424;48.520;11.228;2023-09-19T09:59:04;18.00;99.90
12720;DHT22;6424;48.520;11.228;2023-09-19T10:01:49;18.10;99.90
12720;DHT22;6424;48.520;11.228;2023-09-19T10:04:33;18.30;99.90
12720;DHT22;6424;48.520;11.228;2023-09-19T10:07:28;18.40;99.90
12720;DHT22;6424;48.520;11.228;2023-09-19T10:10:33;18.40;99.90
12720;DHT22;6424;48.520;11.228;2023-09-19T10:13:29;18.50;99.90
12720;DHT22;6424;48.520;11.228;2023-09-19T10:16:16;18.40;99.90
12720;DHT22;6424;48.520;11.228;2023-09-19T10:19:07;18.40;99.90
12720;DHT22;6424;48.520;11.228;2023-09-19T10:21:54;18.40;99.90
12720;DHT22;6424;48.520;11.228;2023-09-19T10:24:43;18.40;99.90
12720;DHT22;6424;48.520;11.228;2023-09-19T10:27:30;18.50;99.90
12720;DHT22;6424;48.520;11.228;2023-09-19T10:30:23;18.50;99.90
12720;DHT22;6424;48.520;11.228;2023-09-19T10:33:09;18.60;99.90
12720;DHT22;6424;48.520;11.228;2023-09-19T10:35:54;18.80;99.90
12720;DHT22;6424;48.520;11.228;2023-09-19T10:38:43;18.90;99.90
12720;DHT22;6424;48.520;11.228;2023-09-19T10:41:32;19.10;99.90
12720;DHT22;6424;48.520;11.228;2023-09-19T10:44:23;19.30;99.90
12720;DHT22;6424;48.520;11.228;2023-09-19T10:47:09;19.40;99.90
12720;DHT22;6424;48.520;11.228;2023-09-19T10:49:55;19.50;99.90
12720;DHT22;6424;48.520;11.228;2023-09-19T10:52:41;19.70;99.90
12720;DHT22;6424;48.520;11.228;2023-09-19T10:55:28;19.90;99.90
12720;DHT22;6424;48.520;11.228;2023-09-19T10:58:12;20.00;99.90
12720;DHT22;6424;48.520;11.228;2023-09-19T11:01:00;20.10;99.90
12720;DHT22;6424;48.520;11.228;2023-09-19T11:04:20;20.20;99.90
12720;DHT22;6424;48.520;11.228;2023-09-19T11:07:14;20.30;99.90
12720;DHT22;6424;48.520;11.228;2023-09-19T11:09:59;20.30;99.90
12720;DHT22;6424;48.520;11.228;2023-09-19T11:12:49;19.80;99.90
12720;DHT22;6424;48.520;11.228;2023-09-19T11:16:04;19.50;99.90
12720;DHT22;6424;48.520;11.228;2023-09-19T11:18:52;19.30;99.90
12720;DHT22;6424;48.520;11.228;2023-09-19T11:27:10;19.60;99.90
12720;DHT22;6424;48.520;11.228;2023-09-19T11:30:26;19.90;99.90
12720;DHT22;6424;48.520;11.228;2023-09-19T11:33:30;20.10;99.90
12720;DHT22;6424;48.520;11.228;2023-09-19T11:36:16;20.20;99.90
12720;DHT22;6424;48.520;11.228;2023-09-19T11:39:02;20.40;99.90
12720;DHT22;6424;48.520;11.228;2023-09-19T11:41:53;20.60;99.90
12720;DHT22;6424;48.520;11.228;2023-09-19T11:44:40;20.80;99.90
12720;DHT22;6424;48.520;11.228;2023-09-19T11:47:25;20.70;99.90
12720;DHT22;6424;48.520;11.228;2023-09-19T11:50:10;20.80;99.90
12720;DHT22;6424;48.520;11.228;2023-09-19T11:52:55;20.70;99.90
12720;DHT22;6424;48.520;11.228;2023-09-19T11:55:41;20.60;99.90
12720;DHT22;6424;48.520;11.228;2023-09-19T11:58:28;20.50;99.90
12720;DHT22;6424;48.520;11.228;2023-09-19T12:01:15;20.30;99.90
12720;DHT22;6424;48.520;11.228;2023-09-19T12:04:05;20.10;99.90
12720;DHT22;6424;48.520;11.228;2023-09-19T12:06:56;19.90;99.90
12720;DHT22;6424;48.520;11.228;2023-09-19T12:09:42;19.90;99.90
12720;DHT22;6424;48.520;11.228;2023-09-19T12:12:34;19.80;99.90
12720;DHT22;6424;48.520;11.228;2023-09-19T12:15:23;19.90;99.90
12720;DHT22;6424;48.520;11.228;2023-09-19T12:18:30;19.90;99.90
12720;DHT22;6424;48.520;11.228;2023-09-19T12:21:31;20.10;99.90
12720;DHT22;6424;48.520;11.228;2023-09-19T12:24:15;20.20;99.90
12720;DHT22;6424;48.520;11.228;2023-09-19T12:27:05;20.20;99.90
12720;DHT22;6424;48.520;11.228;2023-09-19T12:29:50;20.40;99.90
12720;DHT22;6424;48.520;11.228;2023-09-19T12:32:39;20.50;99.90
12720;DHT22;6424;48.520;11.228;2023-09-19T12:35:32;20.60;99.90
12720;DHT22;6424;48.520;11.228;2023-09-19T12:38:26;20.80;99.90
12720;DHT22;6424;48.520;11.228;2023-09-19T12:41:12;21.00;99.90
12720;DHT22;6424;48.520;11.228;2023-09-19T12:43:56;21.10;99.90
12720;DHT22;6424;48.520;11.228;2023-09-19T12:46:42;21.30;99.90
12720;DHT22;6424;48.520;11.228;2023-09-19T12:49:27;21.40;99.90
12720;DHT22;6424;48.520;11.228;2023-09-19T12:52:12;21.50;99.90
12720;DHT22;6424;48.520;11.228;2023-09-19T12:54:58;21.70;99.90
12720;DHT22;6424;48.520;11.228;2023-09-19T12:57:59;21.80;99.90
12720;DHT22;6424;48.520;11.228;2023-09-19T13:00:45;21.80;99.90
12720;DHT22;6424;48.520;11.228;2023-09-19T13:03:30;21.80;99.90
12720;DHT22;6424;48.520;11.228;2023-09-19T13:06:35;21.90;99.90
12720;DHT22;6424;48.520;11.228;2023-09-19T13:09:24;21.80;99.90
12720;DHT22;6424;48.520;11.228;2023-09-19T13:12:35;21.50;99.90
12720;DHT22;6424;48.520;11.228;2023-09-19T13:15:21;21.20;99.90
12720;DHT22;6424;48.520;11.228;2023-09-19T13:18:11;20.90;99.90
12720;DHT22;6424;48.520;11.228;2023-09-19T13:21:10;20.90;99.90
12720;DHT22;6424;48.520;11.228;2023-09-19T13:24:23;20.80;99.90
12720;DHT22;6424;48.520;11.228;2023-09-19T13:27:11;20.80;99.90
12720;DHT22;6424;48.520;11.228;2023-09-19T13:29:55;20.70;99.90
12720;DHT22;6424;48.520;11.228;2023-09-19T13:32:39;20.70;99.90
12720;DHT22;6424;48.520;11.228;2023-09-19T13:35:25;20.70;99.90
12720;DHT22;6424;48.520;11.228;2023-09-19T13:38:09;20.80;99.90
12720;DHT22;6424;48.520;11.228;2023-09-19T13:40:55;20.90;99.90
12720;DHT22;6424;48.520;11.228;2023-09-19T13:43:40;21.00;99.90
12720;DHT22;6424;48.520;11.228;2023-09-19T13:46:24;21.10;99.90
12720;DHT22;6424;48.520;11.228;2023-09-19T13:49:10;21.10;99.90
12720;DHT22;6424;48.520;11.228;2023-09-19T13:51:55;20.90;99.90
12720;DHT22;6424;48.520;11.228;2023-09-19T13:54:40;20.90;99.90
12720;DHT22;6424;48.520;11.228;2023-09-19T13:57:27;20.90;99.90
12720;DHT22;6424;48.520;11.228;2023-09-19T14:00:13;21.10;99.90
12720;DHT22;6424;48.520;11.228;2023-09-19T14:03:00;21.30;99.90
12720;DHT22;6424;48.520;11.228;2023-09-19T14:05:45;21.50;99.90
12720;DHT22;6424;48.520;11.228;2023-09-19T14:08:29;21.60;99.90
12720;DHT22;6424;48.520;11.228;2023-09-19T14:11:13;21.60;99.90
12720;DHT22;6424;48.520;11.228;2023-09-19T14:14:01;21.50;99.90
12720;DHT22;6424;48.520;11.228;2023-09-19T14:16:49;21.30;99.90
12720;DHT22;6424;48.520;11.228;2023-09-19T14:19:33;21.10;99.90
12720;DHT22;6424;48.520;11.228;2023-09-19T14:22:19;21.20;99.90
12720;DHT22;6424;48.520;11.228;2023-09-19T14:25:04;21.20;99.90
12720;DHT22;6424;48.520;11.228;2023-09-19T14:27:49;21.30;99.90
12720;DHT22;6424;48.520;11.228;2023-09-19T14:30:33;21.30;99.90
12720;DHT22;6424;48.520;11.228;2023-09-19T14:33:18;21.20;99.90
12720;DHT22;6424;48.520;11.228;2023-09-19T14:36:04;21.20;99.90
12720;DHT22;6424;48.520;11.228;2023-09-19T14:38:52;21.10;99.90
12720;DHT22;6424;48.520;11.228;2023-09-19T14:41:41;21.00;99.90
12720;DHT22;6424;48.520;11.228;2023-09-19T14:44:25;20.90;99.90
12720;DHT22;6424;48.520;11.228;2023-09-19T14:47:09;21.00;99.90
12720;DHT22;6424;48.520;11.228;2023-09-19T14:49:57;21.10;99.90
12720;DHT22;6424;48.520;11.228;2023-09-19T14:52:42;21.20;99.90
12720;DHT22;6424;48.520;11.228;2023-09-19T14:55:27;21.20;99.90
12720;DHT22;6424;48.520;11.228;2023-09-19T14:58:13;21.30;99.90
12720;DHT22;6424;48.520;11.228;2023-09-19T15:01:09;21.40;99.90
12720;DHT22;6424;48.520;11.228;2023-09-19T15:03:57;21.30;99.90
12720;DHT22;6424;48.520;11.228;2023-09-19T15:06:41;21.20;99.90
12720;DHT22;6424;48.520;11.228;2023-09-19T15:09:26;21.20;99.90
12720;DHT22;6424;48.520;11.228;2023-09-19T15:12:10;21.30;99.90
12720;DHT22;6424;48.520;11.228;2023-09-19T15:14:58;21.30;99.90
12720;DHT22;6424;48.520;11.228;2023-09-19T15:17:42;21.20;99.90
12720;DHT22;6424;48.520;11.228;2023-09-19T15:20:26;21.20;99.90
12720;DHT22;6424;48.520;11.228;2023-09-19T15:23:11;21.20;99.90
12720;DHT22;6424;48.520;11.228;2023-09-19T15:25:56;21.20;99.90
12720;DHT22;6424;48.520;11.228;2023-09-19T15:28:41;21.30;99.90
12720;DHT22;6424;48.520;11.228;2023-09-19T15:31:25;21.30;99.90
12720;DHT22;6424;48.520;11.228;2023-09-19T15:34:10;21.40;99.90
12720;DHT22;6424;48.520;11.228;2023-09-19T15:36:58;21.40;99.90
12720;DHT22;6424;48.520;11.228;2023-09-19T15:39:42;21.40;99.90
12720;DHT22;6424;48.520;11.228;2023-09-19T15:42:28;21.40;99.90
12720;DHT22;6424;48.520;11.228;2023-09-19T15:45:12;21.30;99.90
12720;DHT22;6424;48.520;11.228;2023-09-19T15:47:59;21.20;99.90
12720;DHT22;6424;48.520;11.228;2023-09-19T15:50:43;21.10;99.90
12720;DHT22;6424;48.520;11.228;2023-09-19T15:56:46;20.90;99.90
12720;DHT22;6424;48.520;11.228;2023-09-19T15:59:32;20.90;99.90
12720;DHT22;6424;48.520;11.228;2023-09-19T16:02:17;20.90;99.90
12720;DHT22;6424;48.520;11.228;2023-09-19T16:05:01;20.90;99.90
12720;DHT22;6424;48.520;11.228;2023-09-19T16:07:48;20.90;99.90
12720;DHT22;6424;48.520;11.228;2023-09-19T16:10:36;20.80;99.90
12720;DHT22;6424;48.520;11.228;2023-09-19T16:13:24;20.70;99.90
12720;DHT22;6424;48.520;11.228;2023-09-19T16:16:10;20.70;99.90
12720;DHT22;6424;48.520;11.228;2023-09-19T16:18:58;20.60;99.90
12720;DHT22;6424;48.520;11.228;2023-09-19T16:21:44;20.50;99.90
12720;DHT22;6424;48.520;11.228;2023-09-19T16:24:28;20.40;99.90
12720;DHT22;6424;48.520;11.228;2023-09-19T16:27:13;20.30;99.90
12720;DHT22;6424;48.520;11.228;2023-09-19T16:29:59;20.20;99.90
12720;DHT22;6424;48.520;11.228;2023-09-19T16:32:43;20.10;99.90
12720;DHT22;6424;48.520;11.228;2023-09-19T16:35:28;20.00;99.90
12720;DHT22;6424;48.520;11.228;2023-09-19T16:38:13;19.90;99.90
12720;DHT22;6424;48.520;11.228;2023-09-19T16:40:58;19.90;99.90
12720;DHT22;6424;48.520;11.228;2023-09-19T16:43:43;19.80;99.90
12720;DHT22;6424;48.520;11.228;2023-09-19T16:46:28;19.70;99.90
12720;DHT22;6424;48.520;11.228;2023-09-19T16:49:12;19.60;99.90
12720;DHT22;6424;48.520;11.228;2023-09-19T16:51:56;19.50;99.90
12720;DHT22;6424;48.520;11.228;2023-09-19T16:54:40;19.40;99.90
12720;DHT22;6424;48.520;11.228;2023-09-19T16:57:25;19.30;99.90
12720;DHT22;6424;48.520;11.228;2023-09-19T17:00:10;19.20;99.90
12720;DHT22;6424;48.520;11.228;2023-09-19T17:02:54;19.10;99.90
12720;DHT22;6424;48.520;11.228;2023-09-19T17:05:40;19.00;99.90
12720;DHT22;6424;48.520;11.228;2023-09-19T17:08:28;18.90;99.90
12720;DHT22;6424;48.520;11.228;2023-09-19T17:11:15;18.70;99.90
12720;DHT22;6424;48.520;11.228;2023-09-19T17:14:01;18.70;99.90
12720;DHT22;6424;48.520;11.228;2023-09-19T17:16:45;18.50;99.90
12720;DHT22;6424;48.520;11.228;2023-09-19T17:19:30;18.40;99.90
12720;DHT22;6424;48.520;11.228;2023-09-19T17:22:14;18.30;99.90
12720;DHT22;6424;48.520;11.228;2023-09-19T17:24:58;18.20;99.90
12720;DHT22;6424;48.520;11.228;2023-09-19T17:27:42;18.10;99.90
12720;DHT22;6424;48.520;11.228;2023-09-19T17:30:27;18.00;99.90
12720;DHT22;6424;48.520;11.228;2023-09-19T17:33:12;17.90;99.90
12720;DHT22;6424;48.520;11.228;2023-09-19T17:36:27;17.80;99.90
12720;DHT22;6424;48.520;11.228;2023-09-19T17:39:11;17.60;99.90
12720;DHT22;6424;48.520;11.228;2023-09-19T17:41:59;17.50;99.90
12720;DHT22;6424;48.520;11.228;2023-09-19T17:44:45;17.30;99.90
12720;DHT22;6424;48.520;11.228;2023-09-19T17:47:30;17.20;99.90
12720;DHT22;6424;48.520;11.228;2023-09-19T17:50:14;17.10;99.90
12720;DHT22;6424;48.520;11.228;2023-09-19T17:52:58;17.00;99.90
12720;DHT22;6424;48.520;11.228;2023-09-19T17:55:43;16.90;99.90
12720;DHT22;6424;48.520;11.228;2023-09-19T17:58:28;16.80;99.90
12720;DHT22;6424;48.520;11.228;2023-09-19T18:01:13;16.80;99.90